Cap-Aux-Meules, Canada
Current Conditions -  °F | °C
As of 8:31 AM on Tuesday 27 Jan 2015 (Local Time) from CYGR Reporting Station
Light Snow Light Snow  
Wind Chill:   Ceiling: 700
Heat Index: 18°   Visibility: 1.5mi
Dew Point: 12°   Wind: 24mph
Humidity: 79%   Direction: 70°ENE
Pressure: 30.3"   Gusts: 36mph
Location:  47.38°N, 61.87°W
Report Text: CYGR 271231Z 07021G31KT 1 1/2SM -SN DRSN VV007 M08/M11 A3030 RMK SN8 SLP261
Loading
Personal Weather Stations






























Interactive Weather Map New forecast layout! Learn more

10-Day Weather Forecast

Advertisements
Track Severe Weather on mobile